sensor_id;sensor_type;location;lat;lon;timestamp;temperature;humidity
12434;DHT22;6281;49.038;8.372;2023-06-19T00:01:24;23.40;99.90
12434;DHT22;6281;49.038;8.372;2023-06-19T00:03:51;23.10;99.90
12434;DHT22;6281;49.038;8.372;2023-06-19T00:06:17;23.20;99.90
12434;DHT22;6281;49.038;8.372;2023-06-19T00:08:44;23.10;99.90
12434;DHT22;6281;49.038;8.372;2023-06-19T00:11:11;23.10;99.90
12434;DHT22;6281;49.038;8.372;2023-06-19T00:13:38;23.00;99.90
12434;DHT22;6281;49.038;8.372;2023-06-19T00:16:06;22.80;99.90
12434;DHT22;6281;49.038;8.372;2023-06-19T00:18:34;22.80;99.90
12434;DHT22;6281;49.038;8.372;2023-06-19T00:21:05;22.80;99.90
12434;DHT22;6281;49.038;8.372;2023-06-19T00:23:32;22.70;99.90
12434;DHT22;6281;49.038;8.372;2023-06-19T00:25:59;22.60;99.90
12434;DHT22;6281;49.038;8.372;2023-06-19T00:28:27;22.50;99.90
12434;DHT22;6281;49.038;8.372;2023-06-19T00:30:54;22.50;99.90
12434;DHT22;6281;49.038;8.372;2023-06-19T00:33:23;22.40;99.90
12434;DHT22;6281;49.038;8.372;2023-06-19T00:35:50;22.50;99.90
12434;DHT22;6281;49.038;8.372;2023-06-19T00:38:17;22.50;99.90
12434;DHT22;6281;49.038;8.372;2023-06-19T00:40:44;22.50;99.90
12434;DHT22;6281;49.038;8.372;2023-06-19T00:43:11;22.70;99.90
12434;DHT22;6281;49.038;8.372;2023-06-19T00:45:38;22.80;99.90
12434;DHT22;6281;49.038;8.372;2023-06-19T00:48:05;22.70;99.90
12434;DHT22;6281;49.038;8.372;2023-06-19T00:50:33;22.60;99.90
12434;DHT22;6281;49.038;8.372;2023-06-19T00:53:02;22.50;99.90
12434;DHT22;6281;49.038;8.372;2023-06-19T00:55:31;22.50;99.90
12434;DHT22;6281;49.038;8.372;2023-06-19T00:57:59;22.30;99.90
12434;DHT22;6281;49.038;8.372;2023-06-19T01:00:26;22.10;99.90
12434;DHT22;6281;49.038;8.372;2023-06-19T01:02:53;22.10;99.90
12434;DHT22;6281;49.038;8.372;2023-06-19T01:05:20;22.10;99.90
12434;DHT22;6281;49.038;8.372;2023-06-19T01:07:52;22.10;99.90
12434;DHT22;6281;49.038;8.372;2023-06-19T01:10:24;22.00;99.90
12434;DHT22;6281;49.038;8.372;2023-06-19T01:12:56;21.90;99.90
12434;DHT22;6281;49.038;8.372;2023-06-19T01:15:23;21.90;99.90
12434;DHT22;6281;49.038;8.372;2023-06-19T01:17:50;21.80;99.90
12434;DHT22;6281;49.038;8.372;2023-06-19T01:20:24;21.80;99.90
12434;DHT22;6281;49.038;8.372;2023-06-19T01:22:52;21.80;99.90
12434;DHT22;6281;49.038;8.372;2023-06-19T01:25:22;21.70;99.90
12434;DHT22;6281;49.038;8.372;2023-06-19T01:27:49;21.60;99.90
12434;DHT22;6281;49.038;8.372;2023-06-19T01:30:17;21.60;99.90
12434;DHT22;6281;49.038;8.372;2023-06-19T01:32:50;21.50;99.90
12434;DHT22;6281;49.038;8.372;2023-06-19T01:35:19;21.40;99.90
12434;DHT22;6281;49.038;8.372;2023-06-19T01:37:49;21.10;99.90
12434;DHT22;6281;49.038;8.372;2023-06-19T01:40:18;20.80;99.90
12434;DHT22;6281;49.038;8.372;2023-06-19T01:42:47;20.20;99.90
12434;DHT22;6281;49.038;8.372;2023-06-19T01:45:14;20.10;99.90
12434;DHT22;6281;49.038;8.372;2023-06-19T01:47:41;20.20;99.90
12434;DHT22;6281;49.038;8.372;2023-06-19T01:50:09;19.70;99.90
12434;DHT22;6281;49.038;8.372;2023-06-19T01:52:38;19.80;99.90
12434;DHT22;6281;49.038;8.372;2023-06-19T01:55:06;19.30;99.90
12434;DHT22;6281;49.038;8.372;2023-06-19T01:57:34;19.10;99.90
12434;DHT22;6281;49.038;8.372;2023-06-19T02:00:01;19.30;99.90
12434;DHT22;6281;49.038;8.372;2023-06-19T02:02:30;19.40;99.90
12434;DHT22;6281;49.038;8.372;2023-06-19T02:04:57;19.20;99.90
12434;DHT22;6281;49.038;8.372;2023-06-19T02:07:24;19.10;99.90
12434;DHT22;6281;49.038;8.372;2023-06-19T02:09:51;19.00;99.90
12434;DHT22;6281;49.038;8.372;2023-06-19T02:12:17;19.00;99.90
12434;DHT22;6281;49.038;8.372;2023-06-19T02:14:46;19.30;99.90
12434;DHT22;6281;49.038;8.372;2023-06-19T02:17:12;19.30;99.90
12434;DHT22;6281;49.038;8.372;2023-06-19T02:19:39;19.20;99.90
12434;DHT22;6281;49.038;8.372;2023-06-19T02:25:36;19.50;99.90
12434;DHT22;6281;49.038;8.372;2023-06-19T02:28:03;19.30;99.90
12434;DHT22;6281;49.038;8.372;2023-06-19T02:30:31;19.40;99.90
12434;DHT22;6281;49.038;8.372;2023-06-19T02:32:58;19.40;99.90
12434;DHT22;6281;49.038;8.372;2023-06-19T02:35:25;19.40;99.90
12434;DHT22;6281;49.038;8.372;2023-06-19T02:37:52;19.50;99.90
12434;DHT22;6281;49.038;8.372;2023-06-19T02:40:19;19.40;99.90
12434;DHT22;6281;49.038;8.372;2023-06-19T02:42:45;19.30;99.90
12434;DHT22;6281;49.038;8.372;2023-06-19T02:45:12;19.50;99.90
12434;DHT22;6281;49.038;8.372;2023-06-19T02:47:40;19.70;99.90
12434;DHT22;6281;49.038;8.372;2023-06-19T02:50:07;19.50;99.90
12434;DHT22;6281;49.038;8.372;2023-06-19T02:52:34;19.50;99.90
12434;DHT22;6281;49.038;8.372;2023-06-19T02:55:01;19.50;99.90
12434;DHT22;6281;49.038;8.372;2023-06-19T02:57:28;19.40;99.90
12434;DHT22;6281;49.038;8.372;2023-06-19T02:59:55;19.50;99.90
12434;DHT22;6281;49.038;8.372;2023-06-19T03:02:21;19.40;99.90
12434;DHT22;6281;49.038;8.372;2023-06-19T03:04:50;19.40;99.90
12434;DHT22;6281;49.038;8.372;2023-06-19T03:07:17;19.50;99.90
12434;DHT22;6281;49.038;8.372;2023-06-19T03:09:43;19.50;99.90
12434;DHT22;6281;49.038;8.372;2023-06-19T03:12:10;19.50;99.90
12434;DHT22;6281;49.038;8.372;2023-06-19T03:14:37;19.50;99.90
12434;DHT22;6281;49.038;8.372;2023-06-19T03:17:05;19.50;99.90
12434;DHT22;6281;49.038;8.372;2023-06-19T03:19:32;19.50;99.90
12434;DHT22;6281;49.038;8.372;2023-06-19T03:22:11;19.40;99.90
12434;DHT22;6281;49.038;8.372;2023-06-19T03:24:38;19.30;99.90
12434;DHT22;6281;49.038;8.372;2023-06-19T03:27:05;19.40;99.90
12434;DHT22;6281;49.038;8.372;2023-06-19T03:29:32;19.40;99.90
12434;DHT22;6281;49.038;8.372;2023-06-19T03:31:59;19.40;99.90
12434;DHT22;6281;49.038;8.372;2023-06-19T03:34:25;19.30;99.90
12434;DHT22;6281;49.038;8.372;2023-06-19T03:36:52;19.30;99.90
12434;DHT22;6281;49.038;8.372;2023-06-19T03:39:20;19.30;99.90
12434;DHT22;6281;49.038;8.372;2023-06-19T03:41:47;19.50;99.90
12434;DHT22;6281;49.038;8.372;2023-06-19T03:44:14;19.40;99.90
12434;DHT22;6281;49.038;8.372;2023-06-19T03:46:41;19.50;99.90
12434;DHT22;6281;49.038;8.372;2023-06-19T03:49:08;19.50;99.90
12434;DHT22;6281;49.038;8.372;2023-06-19T03:51:35;19.50;99.90
12434;DHT22;6281;49.038;8.372;2023-06-19T03:54:02;19.60;99.90
12434;DHT22;6281;49.038;8.372;2023-06-19T03:56:30;19.50;99.90
12434;DHT22;6281;49.038;8.372;2023-06-19T03:58:57;19.60;99.90
12434;DHT22;6281;49.038;8.372;2023-06-19T04:01:24;19.70;99.90
12434;DHT22;6281;49.038;8.372;2023-06-19T04:03:50;19.80;99.90
12434;DHT22;6281;49.038;8.372;2023-06-19T04:06:17;19.80;99.90
12434;DHT22;6281;49.038;8.372;2023-06-19T04:08:44;19.80;99.90
12434;DHT22;6281;49.038;8.372;2023-06-19T04:11:11;19.90;99.90
12434;DHT22;6281;49.038;8.372;2023-06-19T04:13:39;19.80;99.90
12434;DHT22;6281;49.038;8.372;2023-06-19T04:16:06;19.80;99.90
12434;DHT22;6281;49.038;8.372;2023-06-19T04:18:32;19.80;99.90
12434;DHT22;6281;49.038;8.372;2023-06-19T04:21:00;19.80;99.90
12434;DHT22;6281;49.038;8.372;2023-06-19T04:23:27;19.80;99.90
12434;DHT22;6281;49.038;8.372;2023-06-19T04:25:54;19.70;99.90
12434;DHT22;6281;49.038;8.372;2023-06-19T04:28:20;19.70;99.90
12434;DHT22;6281;49.038;8.372;2023-06-19T04:30:49;19.60;99.90
12434;DHT22;6281;49.038;8.372;2023-06-19T04:33:15;19.70;99.90
12434;DHT22;6281;49.038;8.372;2023-06-19T04:35:46;19.60;99.90
12434;DHT22;6281;49.038;8.372;2023-06-19T04:38:14;19.70;99.90
12434;DHT22;6281;49.038;8.372;2023-06-19T04:40:40;19.70;99.90
12434;DHT22;6281;49.038;8.372;2023-06-19T04:43:08;19.70;99.90
12434;DHT22;6281;49.038;8.372;2023-06-19T04:45:36;19.70;99.90
12434;DHT22;6281;49.038;8.372;2023-06-19T04:50:34;19.70;99.90
12434;DHT22;6281;49.038;8.372;2023-06-19T04:53:01;19.70;99.90
12434;DHT22;6281;49.038;8.372;2023-06-19T04:55:28;19.80;99.90
12434;DHT22;6281;49.038;8.372;2023-06-19T04:57:56;19.80;99.90
12434;DHT22;6281;49.038;8.372;2023-06-19T05:00:22;19.80;99.90
12434;DHT22;6281;49.038;8.372;2023-06-19T05:02:49;20.00;99.90
12434;DHT22;6281;49.038;8.372;2023-06-19T05:05:16;19.90;99.90
12434;DHT22;6281;49.038;8.372;2023-06-19T05:07:45;20.00;99.90
12434;DHT22;6281;49.038;8.372;2023-06-19T05:10:12;19.90;99.90
12434;DHT22;6281;49.038;8.372;2023-06-19T05:12:52;19.90;99.90
12434;DHT22;6281;49.038;8.372;2023-06-19T05:15:19;20.00;99.90
12434;DHT22;6281;49.038;8.372;2023-06-19T05:17:46;20.00;99.90
12434;DHT22;6281;49.038;8.372;2023-06-19T05:20:13;20.00;99.90
12434;DHT22;6281;49.038;8.372;2023-06-19T05:22:39;20.10;99.90
12434;DHT22;6281;49.038;8.372;2023-06-19T05:25:09;20.20;99.90
12434;DHT22;6281;49.038;8.372;2023-06-19T05:27:36;20.10;99.90
12434;DHT22;6281;49.038;8.372;2023-06-19T05:30:03;20.20;99.90
12434;DHT22;6281;49.038;8.372;2023-06-19T05:32:30;20.20;99.90
12434;DHT22;6281;49.038;8.372;2023-06-19T05:34:57;20.30;99.90
12434;DHT22;6281;49.038;8.372;2023-06-19T05:37:24;20.30;99.90
12434;DHT22;6281;49.038;8.372;2023-06-19T05:39:52;20.40;99.90
12434;DHT22;6281;49.038;8.372;2023-06-19T05:42:20;20.50;99.90
12434;DHT22;6281;49.038;8.372;2023-06-19T05:44:47;20.50;99.90
12434;DHT22;6281;49.038;8.372;2023-06-19T05:47:14;20.60;99.90
12434;DHT22;6281;49.038;8.372;2023-06-19T05:49:42;20.60;99.90
12434;DHT22;6281;49.038;8.372;2023-06-19T05:52:09;20.70;99.90
12434;DHT22;6281;49.038;8.372;2023-06-19T05:54:36;20.70;99.90
12434;DHT22;6281;49.038;8.372;2023-06-19T05:57:03;20.80;99.90
12434;DHT22;6281;49.038;8.372;2023-06-19T05:59:31;20.90;99.90
12434;DHT22;6281;49.038;8.372;2023-06-19T06:01:58;20.90;99.90
12434;DHT22;6281;49.038;8.372;2023-06-19T06:04:25;20.70;99.90
12434;DHT22;6281;49.038;8.372;2023-06-19T06:06:52;20.80;99.90
12434;DHT22;6281;49.038;8.372;2023-06-19T06:09:19;21.00;99.90
12434;DHT22;6281;49.038;8.372;2023-06-19T06:11:46;21.00;99.90
12434;DHT22;6281;49.038;8.372;2023-06-19T06:17:07;21.30;99.90
12434;DHT22;6281;49.038;8.372;2023-06-19T06:19:34;21.50;99.90
12434;DHT22;6281;49.038;8.372;2023-06-19T06:22:02;21.50;99.90
12434;DHT22;6281;49.038;8.372;2023-06-19T06:24:29;21.50;99.90
12434;DHT22;6281;49.038;8.372;2023-06-19T06:26:56;21.70;99.90
12434;DHT22;6281;49.038;8.372;2023-06-19T06:29:24;21.80;99.90
12434;DHT22;6281;49.038;8.372;2023-06-19T06:31:51;21.90;99.90
12434;DHT22;6281;49.038;8.372;2023-06-19T06:34:19;21.90;99.90
12434;DHT22;6281;49.038;8.372;2023-06-19T06:36:46;21.80;99.90
12434;DHT22;6281;49.038;8.372;2023-06-19T06:39:13;21.70;99.90
12434;DHT22;6281;49.038;8.372;2023-06-19T06:41:39;22.00;99.90
12434;DHT22;6281;49.038;8.372;2023-06-19T06:44:06;22.00;99.90
12434;DHT22;6281;49.038;8.372;2023-06-19T06:46:33;22.20;99.90
12434;DHT22;6281;49.038;8.372;2023-06-19T06:48:59;22.30;99.90
12434;DHT22;6281;49.038;8.372;2023-06-19T06:51:28;22.50;99.90
12434;DHT22;6281;49.038;8.372;2023-06-19T06:53:54;22.40;99.90
12434;DHT22;6281;49.038;8.372;2023-06-19T06:56:21;22.70;99.90
12434;DHT22;6281;49.038;8.372;2023-06-19T06:58:48;22.80;99.90
12434;DHT22;6281;49.038;8.372;2023-06-19T07:01:15;22.70;99.90
12434;DHT22;6281;49.038;8.372;2023-06-19T07:03:41;22.80;99.90
12434;DHT22;6281;49.038;8.372;2023-06-19T07:06:08;22.80;99.90
12434;DHT22;6281;49.038;8.372;2023-06-19T07:08:36;23.00;99.90
12434;DHT22;6281;49.038;8.372;2023-06-19T07:11:06;22.80;99.90
12434;DHT22;6281;49.038;8.372;2023-06-19T07:13:34;22.90;99.90
12434;DHT22;6281;49.038;8.372;2023-06-19T07:16:00;22.70;99.90
12434;DHT22;6281;49.038;8.372;2023-06-19T07:18:27;22.70;99.90
12434;DHT22;6281;49.038;8.372;2023-06-19T07:20:54;22.60;99.90
12434;DHT22;6281;49.038;8.372;2023-06-19T07:23:21;22.60;99.90
12434;DHT22;6281;49.038;8.372;2023-06-19T07:25:49;22.70;99.90
12434;DHT22;6281;49.038;8.372;2023-06-19T07:28:16;22.80;99.90
12434;DHT22;6281;49.038;8.372;2023-06-19T07:30:43;22.80;99.90
12434;DHT22;6281;49.038;8.372;2023-06-19T07:33:13;23.00;99.90
12434;DHT22;6281;49.038;8.372;2023-06-19T07:35:39;22.90;99.90
12434;DHT22;6281;49.038;8.372;2023-06-19T07:38:06;22.90;99.90
12434;DHT22;6281;49.038;8.372;2023-06-19T07:40:33;23.00;99.90
12434;DHT22;6281;49.038;8.372;2023-06-19T07:43:01;23.10;99.90
12434;DHT22;6281;49.038;8.372;2023-06-19T07:45:28;23.20;99.90
12434;DHT22;6281;49.038;8.372;2023-06-19T07:47:55;23.20;99.90
12434;DHT22;6281;49.038;8.372;2023-06-19T07:50:22;22.90;99.90
12434;DHT22;6281;49.038;8.372;2023-06-19T07:52:48;23.00;99.90
12434;DHT22;6281;49.038;8.372;2023-06-19T07:55:15;23.10;99.90
12434;DHT22;6281;49.038;8.372;2023-06-19T07:57:42;23.00;99.90
12434;DHT22;6281;49.038;8.372;2023-06-19T08:00:11;23.20;99.90
12434;DHT22;6281;49.038;8.372;2023-06-19T08:02:39;23.20;99.90
12434;DHT22;6281;49.038;8.372;2023-06-19T08:05:07;23.40;99.90
12434;DHT22;6281;49.038;8.372;2023-06-19T08:07:34;23.60;99.90
12434;DHT22;6281;49.038;8.372;2023-06-19T08:10:01;23.60;99.90
12434;DHT22;6281;49.038;8.372;2023-06-19T08:12:54;24.20;99.90
12434;DHT22;6281;49.038;8.372;2023-06-19T08:15:22;23.90;99.90
12434;DHT22;6281;49.038;8.372;2023-06-19T08:17:49;23.90;99.90
12434;DHT22;6281;49.038;8.372;2023-06-19T08:20:16;24.00;99.90
12434;DHT22;6281;49.038;8.372;2023-06-19T08:22:42;24.00;99.90
12434;DHT22;6281;49.038;8.372;2023-06-19T08:25:09;24.00;99.90
12434;DHT22;6281;49.038;8.372;2023-06-19T08:27:36;24.20;99.90
12434;DHT22;6281;49.038;8.372;2023-06-19T08:30:04;24.30;99.90
12434;DHT22;6281;49.038;8.372;2023-06-19T08:32:32;24.80;99.90
12434;DHT22;6281;49.038;8.372;2023-06-19T08:35:00;24.70;99.90
12434;DHT22;6281;49.038;8.372;2023-06-19T08:37:27;24.90;99.90
12434;DHT22;6281;49.038;8.372;2023-06-19T08:39:54;25.20;99.90
12434;DHT22;6281;49.038;8.372;2023-06-19T08:42:21;24.20;99.90
12434;DHT22;6281;49.038;8.372;2023-06-19T08:44:48;24.70;99.90
12434;DHT22;6281;49.038;8.372;2023-06-19T08:47:15;24.80;99.90
12434;DHT22;6281;49.038;8.372;2023-06-19T08:49:43;24.60;99.90
12434;DHT22;6281;49.038;8.372;2023-06-19T08:52:10;24.20;99.90
12434;DHT22;6281;49.038;8.372;2023-06-19T08:54:37;24.40;99.90
12434;DHT22;6281;49.038;8.372;2023-06-19T08:57:10;24.40;99.90
12434;DHT22;6281;49.038;8.372;2023-06-19T08:59:37;24.70;99.90
12434;DHT22;6281;49.038;8.372;2023-06-19T09:02:05;24.80;99.90
12434;DHT22;6281;49.038;8.372;2023-06-19T09:04:32;24.70;99.90
12434;DHT22;6281;49.038;8.372;2023-06-19T09:07:02;25.00;99.90
12434;DHT22;6281;49.038;8.372;2023-06-19T09:09:29;24.80;99.90
12434;DHT22;6281;49.038;8.372;2023-06-19T09:12:01;24.30;99.90
12434;DHT22;6281;49.038;8.372;2023-06-19T09:14:32;24.40;99.90
12434;DHT22;6281;49.038;8.372;2023-06-19T09:17:00;24.70;99.90
12434;DHT22;6281;49.038;8.372;2023-06-19T09:19:27;24.80;99.90
12434;DHT22;6281;49.038;8.372;2023-06-19T09:22:00;24.80;99.90
12434;DHT22;6281;49.038;8.372;2023-06-19T09:24:33;24.70;99.90
12434;DHT22;6281;49.038;8.372;2023-06-19T09:27:08;25.20;99.90
12434;DHT22;6281;49.038;8.372;2023-06-19T09:29:39;25.00;99.90
12434;DHT22;6281;49.038;8.372;2023-06-19T09:32:16;25.30;99.90
12434;DHT22;6281;49.038;8.372;2023-06-19T09:34:43;25.10;99.90
12434;DHT22;6281;49.038;8.372;2023-06-19T09:37:12;26.20;99.90
12434;DHT22;6281;49.038;8.372;2023-06-19T09:39:39;26.00;99.90
12434;DHT22;6281;49.038;8.372;2023-06-19T09:42:07;26.30;99.90
12434;DHT22;6281;49.038;8.372;2023-06-19T09:44:39;25.80;99.90
12434;DHT22;6281;49.038;8.372;2023-06-19T09:47:17;25.50;99.90
12434;DHT22;6281;49.038;8.372;2023-06-19T09:49:48;26.40;99.90
12434;DHT22;6281;49.038;8.372;2023-06-19T09:52:19;26.80;99.90
12434;DHT22;6281;49.038;8.372;2023-06-19T09:54:47;27.20;99.90
12434;DHT22;6281;49.038;8.372;2023-06-19T09:57:15;26.60;99.90
12434;DHT22;6281;49.038;8.372;2023-06-19T09:59:43;27.00;99.90
12434;DHT22;6281;49.038;8.372;2023-06-19T10:02:11;27.10;99.90
12434;DHT22;6281;49.038;8.372;2023-06-19T10:04:44;26.90;99.90
12434;DHT22;6281;49.038;8.372;2023-06-19T10:07:17;27.00;99.90
12434;DHT22;6281;49.038;8.372;2023-06-19T10:10:03;26.90;99.90
12434;DHT22;6281;49.038;8.372;2023-06-19T10:12:49;27.00;99.90
12434;DHT22;6281;49.038;8.372;2023-06-19T10:15:18;27.00;99.90
12434;DHT22;6281;49.038;8.372;2023-06-19T10:17:47;26.70;99.90
12434;DHT22;6281;49.038;8.372;2023-06-19T10:20:29;26.60;99.90
12434;DHT22;6281;49.038;8.372;2023-06-19T10:23:03;26.40;99.90
12434;DHT22;6281;49.038;8.372;2023-06-19T10:25:32;26.30;99.90
12434;DHT22;6281;49.038;8.372;2023-06-19T10:28:00;26.20;99.90
12434;DHT22;6281;49.038;8.372;2023-06-19T10:30:27;27.00;99.90
12434;DHT22;6281;49.038;8.372;2023-06-19T10:32:55;28.80;99.90
12434;DHT22;6281;49.038;8.372;2023-06-19T10:35:23;30.20;99.90
12434;DHT22;6281;49.038;8.372;2023-06-19T10:37:51;29.90;99.90
12434;DHT22;6281;49.038;8.372;2023-06-19T10:40:19;31.70;99.90
12434;DHT22;6281;49.038;8.372;2023-06-19T10:42:46;30.20;99.90
12434;DHT22;6281;49.038;8.372;2023-06-19T10:45:14;30.30;99.90
12434;DHT22;6281;49.038;8.372;2023-06-19T10:47:43;28.90;99.90
12434;DHT22;6281;49.038;8.372;2023-06-19T10:52:40;28.30;99.90
12434;DHT22;6281;49.038;8.372;2023-06-19T10:55:08;28.70;99.90
12434;DHT22;6281;49.038;8.372;2023-06-19T10:57:37;29.30;99.90
12434;DHT22;6281;49.038;8.372;2023-06-19T11:00:05;29.50;99.90
12434;DHT22;6281;49.038;8.372;2023-06-19T11:02:37;30.00;99.90
12434;DHT22;6281;49.038;8.372;2023-06-19T11:05:06;29.10;99.90
12434;DHT22;6281;49.038;8.372;2023-06-19T11:07:34;29.60;99.90
12434;DHT22;6281;49.038;8.372;2023-06-19T11:10:02;29.20;99.90
12434;DHT22;6281;49.038;8.372;2023-06-19T11:12:29;29.60;99.90
12434;DHT22;6281;49.038;8.372;2023-06-19T11:14:57;29.10;99.90
12434;DHT22;6281;49.038;8.372;2023-06-19T11:17:23;29.80;99.90
12434;DHT22;6281;49.038;8.372;2023-06-19T11:19:51;30.30;99.90
12434;DHT22;6281;49.038;8.372;2023-06-19T11:22:17;29.50;99.90
12434;DHT22;6281;49.038;8.372;2023-06-19T11:24:45;29.60;99.90
12434;DHT22;6281;49.038;8.372;2023-06-19T11:27:20;29.70;99.90
12434;DHT22;6281;49.038;8.372;2023-06-19T11:29:56;30.30;99.90
12434;DHT22;6281;49.038;8.372;2023-06-19T11:32:29;29.60;99.90
12434;DHT22;6281;49.038;8.372;2023-06-19T11:34:56;30.00;99.90
12434;DHT22;6281;49.038;8.372;2023-06-19T11:37:23;28.50;99.90
12434;DHT22;6281;49.038;8.372;2023-06-19T11:39:50;29.00;99.90
12434;DHT22;6281;49.038;8.372;2023-06-19T11:42:18;29.40;99.90
12434;DHT22;6281;49.038;8.372;2023-06-19T11:44:54;29.00;99.90
12434;DHT22;6281;49.038;8.372;2023-06-19T11:47:22;29.10;99.90
12434;DHT22;6281;49.038;8.372;2023-06-19T11:49:50;28.70;99.90
12434;DHT22;6281;49.038;8.372;2023-06-19T11:52:17;29.20;99.90
12434;DHT22;6281;49.038;8.372;2023-06-19T11:54:44;29.10;99.90
12434;DHT22;6281;49.038;8.372;2023-06-19T11:57:11;29.60;99.90
12434;DHT22;6281;49.038;8.372;2023-06-19T11:59:38;30.40;99.90
12434;DHT22;6281;49.038;8.372;2023-06-19T12:02:06;29.90;99.90
12434;DHT22;6281;49.038;8.372;2023-06-19T12:04:34;29.80;99.90
12434;DHT22;6281;49.038;8.372;2023-06-19T12:07:01;29.80;99.90
12434;DHT22;6281;49.038;8.372;2023-06-19T12:09:29;30.50;99.90
12434;DHT22;6281;49.038;8.372;2023-06-19T12:11:57;30.50;99.90
12434;DHT22;6281;49.038;8.372;2023-06-19T12:14:24;31.10;99.90
12434;DHT22;6281;49.038;8.372;2023-06-19T12:16:52;29.90;99.90
12434;DHT22;6281;49.038;8.372;2023-06-19T12:19:18;29.90;99.90
12434;DHT22;6281;49.038;8.372;2023-06-19T12:21:47;30.50;99.90
12434;DHT22;6281;49.038;8.372;2023-06-19T12:24:13;30.70;99.90
12434;DHT22;6281;49.038;8.372;2023-06-19T12:26:40;30.60;99.90
12434;DHT22;6281;49.038;8.372;2023-06-19T12:29:07;30.70;99.90
12434;DHT22;6281;49.038;8.372;2023-06-19T12:31:34;29.50;99.90
12434;DHT22;6281;49.038;8.372;2023-06-19T12:34:02;30.70;99.90
12434;DHT22;6281;49.038;8.372;2023-06-19T12:36:29;31.50;99.90
12434;DHT22;6281;49.038;8.372;2023-06-19T12:38:58;30.80;99.90
12434;DHT22;6281;49.038;8.372;2023-06-19T12:41:25;31.30;99.90
12434;DHT22;6281;49.038;8.372;2023-06-19T12:43:52;31.50;99.90
12434;DHT22;6281;49.038;8.372;2023-06-19T12:46:19;30.80;99.90
12434;DHT22;6281;49.038;8.372;2023-06-19T12:48:46;30.90;99.90
12434;DHT22;6281;49.038;8.372;2023-06-19T12:51:16;32.20;99.90
12434;DHT22;6281;49.038;8.372;2023-06-19T12:53:43;32.50;94.30
12434;DHT22;6281;49.038;8.372;2023-06-19T12:56:11;32.10;99.90
12434;DHT22;6281;49.038;8.372;2023-06-19T12:58:38;31.70;98.80
12434;DHT22;6281;49.038;8.372;2023-06-19T13:01:05;31.60;99.20
12434;DHT22;6281;49.038;8.372;2023-06-19T13:03:31;32.40;97.40
12434;DHT22;6281;49.038;8.372;2023-06-19T13:05:58;32.60;96.60
12434;DHT22;6281;49.038;8.372;2023-06-19T13:08:25;32.00;94.30
12434;DHT22;6281;49.038;8.372;2023-06-19T13:10:52;31.00;99.90
12434;DHT22;6281;49.038;8.372;2023-06-19T13:13:20;32.00;99.90
12434;DHT22;6281;49.038;8.372;2023-06-19T13:15:46;32.80;93.90
12434;DHT22;6281;49.038;8.372;2023-06-19T13:18:13;33.00;91.60
12434;DHT22;6281;49.038;8.372;2023-06-19T13:20:40;32.10;96.80
12434;DHT22;6281;49.038;8.372;2023-06-19T13:23:08;32.50;94.70
12434;DHT22;6281;49.038;8.372;2023-06-19T13:25:35;31.40;99.70
12434;DHT22;6281;49.038;8.372;2023-06-19T13:28:02;33.00;99.70
12434;DHT22;6281;49.038;8.372;2023-06-19T13:30:30;33.20;94.50
12434;DHT22;6281;49.038;8.372;2023-06-19T13:32:57;32.30;97.80
12434;DHT22;6281;49.038;8.372;2023-06-19T13:35:24;32.20;99.90
12434;DHT22;6281;49.038;8.372;2023-06-19T13:37:50;31.60;99.90
12434;DHT22;6281;49.038;8.372;2023-06-19T13:40:17;32.10;99.90
12434;DHT22;6281;49.038;8.372;2023-06-19T13:42:44;32.00;99.90
12434;DHT22;6281;49.038;8.372;2023-06-19T13:45:11;31.20;99.90
12434;DHT22;6281;49.038;8.372;2023-06-19T13:47:39;30.60;99.90
12434;DHT22;6281;49.038;8.372;2023-06-19T13:50:08;30.90;99.90
12434;DHT22;6281;49.038;8.372;2023-06-19T13:52:35;30.50;99.90
12434;DHT22;6281;49.038;8.372;2023-06-19T13:55:02;31.00;99.90
12434;DHT22;6281;49.038;8.372;2023-06-19T13:57:29;30.60;99.90
12434;DHT22;6281;49.038;8.372;2023-06-19T13:59:56;30.40;99.90
12434;DHT22;6281;49.038;8.372;2023-06-19T14:02:23;30.40;99.90
12434;DHT22;6281;49.038;8.372;2023-06-19T14:04:51;31.00;99.90
12434;DHT22;6281;49.038;8.372;2023-06-19T14:07:18;32.00;99.90
12434;DHT22;6281;49.038;8.372;2023-06-19T14:09:47;31.30;96.70
12434;DHT22;6281;49.038;8.372;2023-06-19T14:12:14;31.00;99.90
12434;DHT22;6281;49.038;8.372;2023-06-19T14:14:41;30.50;99.90
12434;DHT22;6281;49.038;8.372;2023-06-19T14:17:08;30.70;99.90
12434;DHT22;6281;49.038;8.372;2023-06-19T14:19:34;30.60;99.90
12434;DHT22;6281;49.038;8.372;2023-06-19T14:22:03;30.70;99.90
12434;DHT22;6281;49.038;8.372;2023-06-19T14:24:29;30.90;99.90
12434;DHT22;6281;49.038;8.372;2023-06-19T14:26:56;30.70;99.70
12434;DHT22;6281;49.038;8.372;2023-06-19T14:29:23;30.70;99.90
12434;DHT22;6281;49.038;8.372;2023-06-19T14:31:50;31.20;99.90
12434;DHT22;6281;49.038;8.372;2023-06-19T14:34:18;31.70;99.90
12434;DHT22;6281;49.038;8.372;2023-06-19T14:36:46;31.00;99.90
12434;DHT22;6281;49.038;8.372;2023-06-19T14:39:14;30.90;99.90
12434;DHT22;6281;49.038;8.372;2023-06-19T14:41:41;30.90;99.90
12434;DHT22;6281;49.038;8.372;2023-06-19T14:44:08;30.60;99.90
12434;DHT22;6281;49.038;8.372;2023-06-19T14:46:35;31.10;99.90
12434;DHT22;6281;49.038;8.372;2023-06-19T14:49:05;31.00;99.90
12434;DHT22;6281;49.038;8.372;2023-06-19T14:51:31;31.20;99.90
12434;DHT22;6281;49.038;8.372;2023-06-19T14:53:58;31.00;99.90
12434;DHT22;6281;49.038;8.372;2023-06-19T14:56:26;30.90;99.90
12434;DHT22;6281;49.038;8.372;2023-06-19T14:58:53;31.00;99.90
12434;DHT22;6281;49.038;8.372;2023-06-19T15:01:20;30.70;99.90
12434;DHT22;6281;49.038;8.372;2023-06-19T15:03:47;30.60;99.90
12434;DHT22;6281;49.038;8.372;2023-06-19T15:06:14;30.40;99.90
12434;DHT22;6281;49.038;8.372;2023-06-19T15:08:41;30.30;99.90
12434;DHT22;6281;49.038;8.372;2023-06-19T15:11:07;30.00;99.90
12434;DHT22;6281;49.038;8.372;2023-06-19T15:13:36;29.90;99.90
12434;DHT22;6281;49.038;8.372;2023-06-19T15:16:02;29.80;99.90
12434;DHT22;6281;49.038;8.372;2023-06-19T15:18:30;29.50;99.90
12434;DHT22;6281;49.038;8.372;2023-06-19T15:20:57;29.40;99.90
12434;DHT22;6281;49.038;8.372;2023-06-19T15:23:24;29.30;99.90
12434;DHT22;6281;49.038;8.372;2023-06-19T15:25:51;29.20;99.90
12434;DHT22;6281;49.038;8.372;2023-06-19T15:28:19;28.90;99.90
12434;DHT22;6281;49.038;8.372;2023-06-19T15:30:47;28.70;99.90
12434;DHT22;6281;49.038;8.372;2023-06-19T15:33:14;28.70;99.90
12434;DHT22;6281;49.038;8.372;2023-06-19T15:35:41;28.50;99.90
12434;DHT22;6281;49.038;8.372;2023-06-19T15:38:08;28.50;99.90
12434;DHT22;6281;49.038;8.372;2023-06-19T15:40:35;28.40;99.90
12434;DHT22;6281;49.038;8.372;2023-06-19T15:43:03;28.70;99.90
12434;DHT22;6281;49.038;8.372;2023-06-19T15:45:30;28.70;99.90
12434;DHT22;6281;49.038;8.372;2023-06-19T15:48:00;28.70;99.90
12434;DHT22;6281;49.038;8.372;2023-06-19T15:50:27;28.80;99.90
12434;DHT22;6281;49.038;8.372;2023-06-19T15:52:54;28.90;99.90
12434;DHT22;6281;49.038;8.372;2023-06-19T15:55:21;28.80;99.90
12434;DHT22;6281;49.038;8.372;2023-06-19T15:57:49;28.90;99.90
12434;DHT22;6281;49.038;8.372;2023-06-19T16:00:17;29.00;99.90